Time;durP1;ratioP1;P1;durP2;ratioP2;P2;SDS_P1;SDS_P2;PMS_P1;PMS_P2;Temp;Humidity;BMP_temperature;BMP_pressure;BME280_temperature;BME280_humidity;BME280_pressure;Samples;Min_cycle;Max_cycle;Signal;HPM_P1;HPM_P2
2023/04/04 00:00:59;;;;;;;5.57;1.17;;;;;;;2.87;100.00;100219.84;5030713;28;20229;-79
2023/04/04 00:03:27;;;;;;;4.40;1.70;;;;;;;2.59;100.00;100215.00;5029122;28;20197;-79
2023/04/04 00:05:56;;;;;;;3.70;1.70;;;;;;;2.51;100.00;100216.00;5026894;28;20295;-79
2023/04/04 00:08:24;;;;;;;5.07;2.40;;;;;;;2.67;100.00;100208.81;5023258;28;20201;-80
2023/04/04 00:10:58;;;;;;;3.20;1.80;;;;;;;2.65;100.00;100215.81;5023365;28;20198;-79
2023/04/04 00:13:27;;;;;;;4.57;1.87;;;;;;;2.58;100.00;100217.66;5063494;28;20219;-79
2023/04/04 00:15:56;;;;;;;3.70;1.87;;;;;;;2.54;100.00;100219.47;5079088;28;20195;-80
2023/04/04 00:18:24;;;;;;;3.63;1.70;;;;;;;2.53;100.00;100219.47;5086065;28;20214;-80
2023/04/04 00:20:52;;;;;;;3.67;1.60;;;;;;;2.43;100.00;100215.28;5009500;28;20214;-79
2023/04/04 00:23:21;;;;;;;6.37;1.70;;;;;;;2.43;100.00;100216.13;5010347;28;20199;-79
2023/04/04 00:25:51;;;;;;;2.13;1.47;;;;;;;2.38;100.00;100211.84;5008523;28;20195;-80
2023/04/04 00:28:21;;;;;;;2.90;1.80;;;;;;;2.43;100.00;100216.13;5010732;28;20186;-80
2023/04/04 00:30:49;;;;;;;3.57;1.50;;;;;;;2.56;100.00;100217.69;5007976;28;20202;-80
2023/04/04 00:33:18;;;;;;;3.63;1.50;;;;;;;2.61;100.00;100212.41;5009616;28;20230;-79
2023/04/04 00:35:50;;;;;;;2.77;1.37;;;;;;;2.56;100.00;100208.97;5006038;28;20298;-80
2023/04/04 00:38:18;;;;;;;5.00;1.40;;;;;;;2.29;100.00;100211.09;5025423;28;20200;-79
2023/04/04 00:40:51;;;;;;;2.97;1.20;;;;;;;2.17;100.00;100213.00;5085766;28;20196;-79
2023/04/04 00:43:21;;;;;;;1.67;1.30;;;;;;;2.25;100.00;100211.16;5086571;28;20199;-80
2023/04/04 00:45:50;;;;;;;2.90;1.40;;;;;;;2.27;100.00;100212.00;5039032;28;20646;-79
2023/04/04 00:48:20;;;;;;;5.33;1.53;;;;;;;2.32;100.00;100214.53;5084360;28;20315;-79
2023/04/04 00:50:48;;;;;;;1.87;1.30;;;;;;;2.17;100.00;100213.00;5088552;28;20210;-79
2023/04/04 00:53:17;;;;;;;3.17;1.67;;;;;;;2.04;100.00;100214.06;5090445;28;20212;-79
2023/04/04 00:55:45;;;;;;;3.73;2.03;;;;;;;2.03;100.00;100221.03;5091835;28;20248;-79
2023/04/04 00:58:13;;;;;;;3.83;2.20;;;;;;;2.03;100.00;100215.81;5096190;28;20192;-79
2023/04/04 01:00:43;;;;;;;3.97;2.23;;;;;;;2.24;100.00;100201.59;5085938;28;20223;-79
2023/04/04 01:03:13;;;;;;;4.07;1.87;;;;;;;2.10;100.00;100208.72;5093203;28;20276;-79
2023/04/04 01:05:41;;;;;;;5.27;1.87;;;;;;;2.20;100.00;100211.19;5093069;28;20241;-79
2023/04/04 01:08:10;;;;;;;6.03;1.90;;;;;;;2.18;100.00;100206.88;5092572;28;20196;-80
2023/04/04 01:10:40;;;;;;;2.10;1.40;;;;;;;2.05;100.00;100211.41;5093269;28;20184;-79
2023/04/04 01:13:09;;;;;;;3.17;1.40;;;;;;;2.00;100.00;100210.59;5090454;28;20274;-79
2023/04/04 01:15:38;;;;;;;4.60;1.97;;;;;;;2.11;100.00;100210.44;5072173;28;20195;-80
2023/04/04 01:18:11;;;;;;;3.30;1.60;;;;;;;2.05;100.00;100208.81;5090830;28;20199;-79
2023/04/04 01:20:44;;;;;;;4.10;1.63;;;;;;;2.02;100.00;100206.19;5085808;28;20247;-79
2023/04/04 01:23:15;;;;;;;3.90;1.57;;;;;;;2.05;100.00;100205.31;5093137;28;20195;-79
2023/04/04 01:25:48;;;;;;;3.53;1.60;;;;;;;2.12;100.00;100214.78;5084733;28;20225;-79
2023/04/04 01:28:17;;;;;;;3.07;1.70;;;;;;;2.01;100.00;100210.56;5092636;28;20200;-80
2023/04/04 01:30:46;;;;;;;3.17;1.40;;;;;;;2.00;100.00;100210.59;5088365;28;20199;-79
2023/04/04 01:33:21;;;;;;;4.73;1.70;;;;;;;2.01;100.00;100197.50;5095795;28;20299;-79
2023/04/04 01:35:56;;;;;;;2.53;1.50;;;;;;;2.00;100.00;100201.00;5091370;28;20248;-79
2023/04/04 01:38:29;;;;;;;3.83;1.73;;;;;;;1.99;100.00;100198.41;5087732;28;20202;-79
2023/04/04 01:41:03;;;;;;;2.40;1.50;;;;;;;2.06;100.00;100200.06;5087086;28;20203;-80
2023/04/04 01:43:32;;;;;;;4.73;1.87;;;;;;;1.91;100.00;100193.28;5085674;28;20204;-80
2023/04/04 01:46:00;;;;;;;4.80;1.73;;;;;;;1.91;100.00;100193.28;5095528;28;20195;-79
2023/04/04 01:48:29;;;;;;;5.40;1.70;;;;;;;1.85;100.00;100187.28;5091660;28;20303;-80
2023/04/04 01:50:57;;;;;;;2.53;1.63;;;;;;;1.56;100.00;100187.63;5087412;28;20204;-79
2023/04/04 01:53:26;;;;;;;4.73;1.80;;;;;;;1.65;100.00;100187.50;5092167;28;20277;-79
2023/04/04 01:55:54;;;;;;;3.33;1.33;;;;;;;1.72;100.00;100184.78;5086868;28;20203;-80
2023/04/04 01:58:24;;;;;;;4.10;2.00;;;;;;;1.57;100.00;100190.22;5092287;28;20207;-80
2023/04/04 02:00:53;;;;;;;4.17;1.80;;;;;;;1.62;100.00;100179.69;5090624;28;20248;-79
2023/04/04 02:03:21;;;;;;;3.27;1.87;;;;;;;1.64;100.00;100181.44;5093738;28;20192;-79
2023/04/04 02:05:49;;;;;;;2.73;1.70;;;;;;;1.65;100.00;100179.69;5089220;28;20202;-79
2023/04/04 02:08:17;;;;;;;2.23;1.33;;;;;;;1.59;100.00;100184.97;5091829;28;20670;-79
2023/04/04 02:10:45;;;;;;;3.20;1.60;;;;;;;1.57;100.00;100186.72;5091930;28;20665;-80
2023/04/04 02:13:14;;;;;;;4.40;1.70;;;;;;;1.54;100.00;100184.13;5094928;28;20216;-79
2023/04/04 02:15:43;;;;;;;2.73;1.47;;;;;;;1.45;100.00;100185.13;5091115;28;20196;-80
2023/04/04 02:18:12;;;;;;;4.07;1.57;;;;;;;1.42;100.00;100193.81;5039988;28;20200;-80
2023/04/04 02:20:40;;;;;;;2.77;1.47;;;;;;;1.32;100.00;100191.34;5091433;28;20192;-80
2023/04/04 02:23:09;;;;;;;4.97;1.40;;;;;;;1.47;100.00;100192.94;5038262;28;20195;-79
2023/04/04 02:25:37;;;;;;;2.33;1.27;;;;;;;1.29;100.00;100188.75;5084791;28;20184;-80
2023/04/04 02:28:05;;;;;;;3.50;1.80;;;;;;;1.35;100.00;100184.34;5086123;28;20198;-80
2023/04/04 02:30:33;;;;;;;3.33;1.47;;;;;;;1.35;100.00;100183.47;5088789;28;20293;-79
2023/04/04 02:33:03;;;;;;;4.07;1.60;;;;;;;1.37;100.00;100185.19;5083901;28;20269;-79
2023/04/04 02:35:35;;;;;;;2.93;1.53;;;;;;;1.49;100.00;100178.13;5089730;28;20279;-80
2023/04/04 02:38:03;;;;;;;2.50;1.60;;;;;;;1.49;100.00;100168.53;5087959;28;20199;-80
2023/04/04 02:40:32;;;;;;;4.57;2.03;;;;;;;1.50;100.00;100167.66;5085142;28;20668;-80
2023/04/04 02:43:00;;;;;;;4.30;1.67;;;;;;;1.55;100.00;100165.00;5094054;28;20647;-80
2023/04/04 02:45:29;;;;;;;2.63;1.50;;;;;;;1.56;100.00;100154.53;5087093;28;20204;-79
2023/04/04 02:47:57;;;;;;;2.90;1.30;;;;;;;1.47;100.00;100162.47;5093263;28;20200;-80
2023/04/04 02:50:27;;;;;;;7.03;1.60;;;;;;;1.37;100.00;100159.09;5091170;28;20196;-80
2023/04/04 02:53:00;;;;;;;2.50;1.50;;;;;;;1.33;100.00;100157.38;5088902;28;20242;-80
2023/04/04 02:55:29;;;;;;;2.73;1.50;;;;;;;1.28;100.00;100159.19;5084304;28;20196;-79
2023/04/04 02:57:57;;;;;;;2.57;1.37;;;;;;;1.31;100.00;100156.53;5031539;28;20229;-80
2023/04/04 03:00:25;;;;;;;4.27;1.60;;;;;;;1.12;100.00;100157.59;5029266;28;20230;-80
2023/04/04 03:02:54;;;;;;;4.17;1.73;;;;;;;1.28;100.00;100161.81;5027864;28;20206;-80
2023/04/04 03:05:24;;;;;;;3.77;1.70;;;;;;;1.39;100.00;100146.03;5026244;28;20204;-80
2023/04/04 03:07:56;;;;;;;3.03;1.53;;;;;;;1.47;100.00;100146.81;5023126;28;20217;-79
2023/04/04 03:10:25;;;;;;;6.10;2.00;;;;;;;1.48;100.00;100145.06;5027728;28;20716;-79
2023/04/04 03:12:53;;;;;;;2.90;1.80;;;;;;;1.29;100.00;100140.03;5031499;28;20185;-80
2023/04/04 03:15:24;;;;;;;3.83;1.60;;;;;;;1.24;100.00;100135.75;5039418;28;20219;-80
2023/04/04 03:17:53;;;;;;;3.77;1.60;;;;;;;1.34;100.00;100143.44;5083006;28;20249;-79
2023/04/04 03:20:22;;;;;;;3.83;1.70;;;;;;;1.17;100.00;100142.78;5084794;28;20195;-80
2023/04/04 03:22:50;;;;;;;3.23;1.50;;;;;;;1.00;100.00;100140.34;5087251;28;20340;-79
2023/04/04 03:25:20;;;;;;;2.20;1.30;;;;;;;1.06;100.00;100140.28;5083065;28;20202;-79
2023/04/04 03:27:49;;;;;;;4.17;1.77;;;;;;;1.17;100.00;100140.19;5090268;28;20708;-79
2023/04/04 03:30:17;;;;;;;6.47;2.07;;;;;;;1.02;100.00;100138.56;5089354;28;20257;-80
2023/04/04 03:32:45;;;;;;;3.57;1.80;;;;;;;1.01;100.00;100135.97;5093246;28;20248;-80
2023/04/04 03:35:15;;;;;;;3.60;1.57;;;;;;;0.90;100.00;100141.28;5087353;28;20219;-79
2023/04/04 03:37:43;;;;;;;5.07;1.70;;;;;;;1.12;100.00;100131.50;5085372;28;20188;-79
2023/04/04 03:40:12;;;;;;;3.00;1.70;;;;;;;1.03;100.00;100139.44;5089340;28;20645;-79
2023/04/04 03:42:43;;;;;;;5.10;2.47;;;;;;;1.07;100.00;100135.94;5089399;28;20690;-79
2023/04/04 03:45:12;;;;;;;5.13;1.83;;;;;;;1.09;100.00;100136.78;5082760;28;20200;-79
2023/04/04 03:47:40;;;;;;;2.37;1.63;;;;;;;1.06;100.00;100137.69;5081297;28;20192;-79
2023/04/04 03:50:09;;;;;;;4.57;1.60;;;;;;;1.01;100.00;100134.22;5082052;28;20200;-80
2023/04/04 03:52:38;;;;;;;4.03;1.70;;;;;;;1.05;100.00;100129.84;4981386;28;20238;-79
2023/04/04 03:55:07;;;;;;;3.30;1.73;;;;;;;1.06;100.00;100127.25;4986491;28;20247;-79
2023/04/04 03:57:36;;;;;;;3.67;1.87;;;;;;;1.10;100.00;100128.06;4948843;29;20247;-79
2023/04/04 04:00:08;;;;;;;4.33;2.10;;;;;;;1.08;100.00;100132.44;4948178;29;20221;-79
2023/04/04 04:02:36;;;;;;;5.27;2.43;;;;;;;0.95;100.00;100118.63;4952666;29;20636;-79
2023/04/04 04:05:05;;;;;;;5.37;1.90;;;;;;;1.01;100.00;100122.94;4950137;29;20200;-79
2023/04/04 04:07:34;;;;;;;5.03;2.00;;;;;;;1.10;100.00;100122.84;4951286;28;20196;-79
2023/04/04 04:10:02;;;;;;;4.47;2.30;;;;;;;0.98;100.00;100112.53;4948905;29;20651;-79
2023/04/04 04:12:30;;;;;;;3.40;2.00;;;;;;;1.05;100.00;100120.28;4952548;29;20204;-79
2023/04/04 04:14:59;;;;;;;4.80;2.20;;;;;;;0.94;100.00;100127.34;4948442;29;20283;-79
2023/04/04 04:17:29;;;;;;;6.97;2.37;;;;;;;0.81;100.00;100118.78;4971365;28;20315;-79
2023/04/04 04:19:57;;;;;;;4.60;2.10;;;;;;;0.80;100.00;100121.41;4988772;28;20663;-78
2023/04/04 04:22:26;;;;;;;3.60;1.90;;;;;;;0.66;100.00;100118.03;5039064;28;20207;-78
2023/04/04 04:24:54;;;;;;;5.67;2.20;;;;;;;0.73;100.00;100117.97;5092117;28;20654;-78
2023/04/04 04:27:22;;;;;;;7.60;2.40;;;;;;;0.69;100.00;100123.25;5086605;28;20196;-79
2023/04/04 04:29:50;;;;;;;5.03;2.40;;;;;;;0.58;100.00;100118.13;5089759;28;20195;-79
2023/04/04 04:32:19;;;;;;;8.73;2.70;;;;;;;0.62;100.00;100119.81;5088660;28;20207;-79
2023/04/04 04:34:49;;;;;;;8.53;2.30;;;;;;;0.69;100.00;100121.50;5089807;28;20222;-79
2023/04/04 04:37:17;;;;;;;2.90;2.10;;;;;;;0.61;100.00;100120.69;5080183;28;20199;-78
2023/04/04 04:39:46;;;;;;;5.10;2.33;;;;;;;0.64;100.00;100130.22;5092476;28;20199;-79
2023/04/04 04:42:14;;;;;;;4.27;2.07;;;;;;;0.65;100.00;100130.19;5087756;28;20203;-78
2023/04/04 04:44:42;;;;;;;4.33;2.20;;;;;;;0.49;100.00;100123.41;5089575;28;20207;-79
2023/04/04 04:47:12;;;;;;;3.57;2.37;;;;;;;0.49;100.00;100129.47;5085737;28;20195;-79
2023/04/04 04:49:42;;;;;;;3.97;2.33;;;;;;;0.43;100.00;100132.13;5088343;28;20200;-79
2023/04/04 04:52:12;;;;;;;3.70;2.33;;;;;;;0.42;100.00;100124.31;5088540;28;20268;-79
2023/04/04 04:54:42;;;;;;;4.23;2.43;;;;;;;0.45;100.00;100126.88;5089427;28;20220;-79
2023/04/04 04:57:10;;;;;;;4.07;2.20;;;;;;;0.46;100.00;100126.88;5081894;28;20203;-79
2023/04/04 04:59:40;;;;;;;5.97;3.17;;;;;;;0.39;100.00;100119.13;5087587;28;20223;-79
2023/04/04 05:02:08;;;;;;;4.97;2.93;;;;;;;0.62;100.00;100119.81;5092486;28;20337;-79
2023/04/04 05:04:36;;;;;;;4.60;2.97;;;;;;;0.39;100.00;100122.59;5087546;28;20224;-79
2023/04/04 05:07:07;;;;;;;4.77;2.87;;;;;;;0.50;100.00;100127.72;5087134;28;20662;-79
2023/04/04 05:09:38;;;;;;;6.40;2.70;;;;;;;0.51;100.00;100125.09;5092393;28;20184;-79
2023/04/04 05:12:06;;;;;;;6.23;2.57;;;;;;;0.56;100.00;100125.06;5088638;28;20348;-79
2023/04/04 05:14:35;;;;;;;3.93;2.13;;;;;;;0.45;100.00;100119.94;5082561;28;20257;-79
2023/04/04 05:17:04;;;;;;;5.80;2.50;;;;;;;0.54;100.00;100125.06;5089540;28;20252;-79
2023/04/04 05:19:33;;;;;;;8.07;2.70;;;;;;;0.52;100.00;100129.44;5067030;28;20197;-79
2023/04/04 05:22:01;;;;;;;5.20;3.57;;;;;;;0.58;100.00;100133.75;5064089;28;20197;-79
2023/04/04 05:24:29;;;;;;;8.27;3.33;;;;;;;0.46;100.00;100134.69;5067132;28;20265;-79
2023/04/04 05:26:59;;;;;;;5.43;2.77;;;;;;;0.53;100.00;100131.16;5058597;28;20229;-79
2023/04/04 05:29:28;;;;;;;4.77;2.90;;;;;;;0.59;100.00;100138.09;5069801;28;20193;-79
2023/04/04 05:31:58;;;;;;;5.97;3.03;;;;;;;0.65;100.00;100147.59;5065515;28;20227;-79
2023/04/04 05:34:27;;;;;;;4.70;2.57;;;;;;;0.76;100.00;100138.78;5066000;28;20215;-79
2023/04/04 05:36:56;;;;;;;4.53;2.33;;;;;;;0.81;100.00;100142.25;5069480;28;20670;-79
2023/04/04 05:39:24;;;;;;;8.87;3.07;;;;;;;0.99;100.00;100137.75;5095491;28;20241;-78
2023/04/04 05:41:53;;;;;;;4.30;2.30;;;;;;;1.21;100.00;100144.47;5095579;28;20249;-79
2023/04/04 05:44:23;;;;;;;3.97;2.27;;;;;;;1.12;100.00;100147.16;5092662;28;20198;-79
2023/04/04 05:46:51;;;;;;;4.80;2.50;;;;;;;1.13;100.00;100144.53;5089349;28;20253;-79
2023/04/04 05:49:20;;;;;;;3.97;2.40;;;;;;;1.29;100.00;100136.56;5092754;28;20371;-79
2023/04/04 05:51:49;;;;;;;8.13;2.30;;;;;;;1.41;100.00;100133.81;5088914;28;20219;-79
2023/04/04 05:54:19;;;;;;;8.83;2.60;;;;;;;1.41;100.00;100139.91;5091344;28;20214;-79
2023/04/04 05:56:47;;;;;;;6.17;2.87;;;;;;;1.58;100.00;100136.25;5088656;28;20223;-79
2023/04/04 05:59:16;;;;;;;5.10;2.80;;;;;;;1.56;100.00;100132.78;5086889;28;20646;-80
2023/04/04 06:01:46;;;;;;;4.60;2.60;;;;;;;1.69;100.00;100132.63;5067016;28;20242;-80
2023/04/04 06:04:14;;;;;;;5.63;2.70;;;;;;;1.70;100.00;100130.88;5066439;28;20204;-80
2023/04/04 06:06:43;;;;;;;4.30;2.80;;;;;;;1.53;100.00;100133.66;5068256;28;20209;-79
2023/04/04 06:09:11;;;;;;;4.03;2.23;;;;;;;1.83;100.00;100131.56;5069152;28;20254;-80
2023/04/04 06:11:39;;;;;;;4.60;2.80;;;;;;;1.87;100.00;100133.28;5071732;28;20184;-79
2023/04/04 06:14:08;;;;;;;9.60;3.37;;;;;;;1.83;100.00;100137.66;5071809;28;20245;-80
2023/04/04 06:16:36;;;;;;;3.93;2.67;;;;;;;2.00;100.00;100132.22;5067638;28;20269;-80
2023/04/04 06:19:06;;;;;;;10.90;5.90;;;;;;;2.07;100.00;100130.38;5066662;28;20695;-80
2023/04/04 06:21:34;;;;;;;5.93;3.63;;;;;;;1.98;100.00;100134.00;5065154;28;20310;-80
2023/04/04 06:24:03;;;;;;;7.33;3.77;;;;;;;1.91;100.00;100140.16;5071833;28;20200;-80
2023/04/04 06:26:31;;;;;;;6.40;3.40;;;;;;;2.16;100.00;100136.34;5074462;28;20662;-79
2023/04/04 06:28:59;;;;;;;5.33;3.20;;;;;;;2.08;100.00;100130.38;5064705;28;20254;-80
2023/04/04 06:31:27;;;;;;;5.63;2.97;;;;;;;2.23;100.00;100132.78;5066067;28;20196;-80
2023/04/04 06:33:56;;;;;;;5.33;3.70;;;;;;;2.48;100.00;100135.88;5074565;28;20200;-80
2023/04/04 06:36:26;;;;;;;5.87;3.77;;;;;;;2.48;100.00;100148.06;5073135;28;20261;-79
2023/04/04 06:38:55;;;;;;;4.70;3.03;;;;;;;2.48;100.00;100148.06;5068373;28;20212;-80
2023/04/04 06:41:23;;;;;;;5.90;3.70;;;;;;;2.59;100.00;100149.63;5074164;28;20250;-80
2023/04/04 06:43:52;;;;;;;7.40;4.10;;;;;;;2.74;100.00;100151.16;5067518;28;20209;-80
2023/04/04 06:46:20;;;;;;;8.40;5.33;;;;;;;2.81;100.00;100155.41;5068596;28;20249;-80
2023/04/04 06:48:48;;;;;;;4.17;2.80;;;;;;;3.05;100.00;100153.25;5073573;28;20192;-80
2023/04/04 06:51:17;;;;;;;4.00;2.83;;;;;;;2.87;100.00;100157.03;5069458;28;20200;-80
2023/04/04 06:53:47;;;;;;;7.30;2.60;;;;;;;3.14;100.00;100155.72;5067115;28;20200;-79
2023/04/04 06:56:15;;;;;;;4.97;2.53;;;;;;;2.87;100.00;100168.38;5065654;28;20220;-79
2023/04/04 06:58:43;;;;;;;2.67;2.40;;;;;;;2.84;100.00;100162.34;5071096;28;20200;-80
2023/04/04 07:01:11;;;;;;;4.13;2.30;;;;;;;2.96;97.94;100176.97;5086166;28;20310;-79
2023/04/04 07:03:40;;;;;;;3.43;2.27;;;;;;;2.93;96.73;100170.03;5090099;28;20250;-80
2023/04/04 07:06:08;;;;;;;4.13;2.37;;;;;;;2.91;94.19;100171.81;5085255;28;20195;-80
2023/04/04 07:08:36;;;;;;;3.73;1.97;;;;;;;2.97;90.67;100176.06;5088497;28;20227;-80
2023/04/04 07:11:06;;;;;;;4.93;1.90;;;;;;;3.00;89.40;100169.03;5082795;28;20210;-80
2023/04/04 07:13:35;;;;;;;2.93;2.20;;;;;;;3.12;90.12;100176.69;5091242;28;20210;-79
2023/04/04 07:16:03;;;;;;;2.87;2.00;;;;;;;3.22;88.08;100180.00;5094292;28;20230;-80
2023/04/04 07:18:31;;;;;;;5.13;2.03;;;;;;;3.08;87.85;100182.84;5086327;28;20658;-79
2023/04/04 07:21:00;;;;;;;5.23;2.30;;;;;;;2.83;86.45;100182.41;5089621;28;20196;-80
2023/04/04 07:23:28;;;;;;;3.10;1.87;;;;;;;3.07;87.19;100185.50;5093836;28;20196;-78
2023/04/04 07:25:56;;;;;;;4.13;2.10;;;;;;;3.17;87.84;100179.19;5084274;28;20191;-79
2023/04/04 07:28:26;;;;;;;3.60;2.20;;;;;;;3.27;85.74;100179.91;5089751;28;20195;-79
2023/04/04 07:30:54;;;;;;;3.63;2.00;;;;;;;3.27;83.38;100177.28;5082064;28;20195;-79
2023/04/04 07:33:23;;;;;;;4.70;2.30;;;;;;;3.41;83.02;100181.41;5090835;28;20257;-79
2023/04/04 07:35:52;;;;;;;4.17;1.63;;;;;;;3.55;83.40;100167.16;5088708;28;20304;-78
2023/04/04 07:38:20;;;;;;;3.07;1.70;;;;;;;3.37;80.65;100160.50;5090422;28;20255;-79
2023/04/04 07:40:49;;;;;;;5.50;2.13;;;;;;;3.37;81.50;100171.00;5094596;28;20207;-79
2023/04/04 07:43:17;;;;;;;2.53;1.90;;;;;;;3.56;83.02;100167.13;5094268;28;20191;-79
2023/04/04 07:45:48;;;;;;;2.97;1.50;;;;;;;3.89;80.12;100176.09;5053565;28;20241;-79
2023/04/04 07:48:17;;;;;;;3.33;1.77;;;;;;;3.72;77.88;100171.19;5097570;28;20301;-79
2023/04/04 07:50:47;;;;;;;4.27;2.00;;;;;;;3.57;77.22;100174.13;5085253;28;20200;-79
2023/04/04 07:53:15;;;;;;;3.23;2.00;;;;;;;3.70;77.99;100175.59;5086400;28;20253;-79
2023/04/04 07:55:44;;;;;;;2.63;1.90;;;;;;;3.83;76.29;100181.44;5087812;28;20199;-80
2023/04/04 07:58:12;;;;;;;3.30;1.90;;;;;;;3.94;75.07;100171.59;5088008;28;20192;-79
2023/04/04 08:00:40;;;;;;;2.63;1.70;;;;;;;4.01;73.76;100173.22;5092623;28;20269;-78
2023/04/04 08:03:11;;;;;;;3.20;2.27;;;;;;;4.07;72.35;100168.75;5093635;28;20191;-78
2023/04/04 08:05:39;;;;;;;3.43;1.90;;;;;;;4.14;73.35;100175.56;5081043;28;20622;-79
2023/04/04 08:08:08;;;;;;;3.80;2.20;;;;;;;4.35;74.81;100169.88;5085221;28;20229;-78
2023/04/04 08:10:36;;;;;;;5.50;2.20;;;;;;;4.47;72.83;100180.09;5089704;28;20204;-79
2023/04/04 08:13:06;;;;;;;3.60;2.20;;;;;;;4.29;69.90;100175.25;5087542;28;20211;-79
2023/04/04 08:15:34;;;;;;;6.67;2.23;;;;;;;4.35;69.39;100166.41;5080395;28;20200;-79
2023/04/04 08:18:02;;;;;;;4.10;1.80;;;;;;;4.57;70.54;100173.72;5082902;28;20224;-79
2023/04/04 08:20:32;;;;;;;2.73;2.00;;;;;;;4.52;72.07;100169.47;5086254;28;20245;-80
2023/04/04 08:23:01;;;;;;;4.67;2.10;;;;;;;4.50;70.19;100173.91;5092845;28;20200;-79
2023/04/04 08:25:29;;;;;;;2.93;2.10;;;;;;;4.56;71.70;100165.91;5010928;28;20194;-79
2023/04/04 08:27:57;;;;;;;3.63;2.20;;;;;;;4.55;69.75;100159.78;5005728;28;20252;-79
2023/04/04 08:30:27;;;;;;;4.00;2.33;;;;;;;4.56;70.40;100158.88;5008319;28;20214;-79
2023/04/04 08:32:55;;;;;;;3.53;2.20;;;;;;;4.82;70.90;100154.75;5005892;28;20202;-79
2023/04/04 08:35:23;;;;;;;3.13;1.97;;;;;;;5.09;71.95;100161.94;5008251;28;20237;-79
2023/04/04 08:37:53;;;;;;;3.80;2.83;;;;;;;4.96;66.52;100160.53;5006720;28;20250;-79
2023/04/04 08:40:22;;;;;;;6.63;3.87;;;;;;;5.04;67.08;100169.09;5004625;28;20704;-79
2023/04/04 08:42:53;;;;;;;3.50;1.60;;;;;;;5.30;63.61;100162.28;5017948;28;20187;-79
2023/04/04 08:45:22;;;;;;;3.77;2.27;;;;;;;5.29;62.88;100158.81;5085840;28;20260;-80
2023/04/04 08:47:52;;;;;;;3.10;2.03;;;;;;;5.51;60.97;100153.00;4981098;28;20202;-79
2023/04/04 08:50:21;;;;;;;3.43;2.17;;;;;;;5.61;59.26;100159.72;5024865;28;20679;-79
2023/04/04 08:52:50;;;;;;;3.87;2.60;;;;;;;5.30;58.68;100151.78;5024201;28;20197;-79
2023/04/04 08:55:22;;;;;;;4.63;2.70;;;;;;;5.26;59.55;100158.91;5023120;28;20255;-79
2023/04/04 08:57:50;;;;;;;4.20;2.10;;;;;;;5.10;58.53;100158.41;5020627;28;20838;-79
2023/04/04 09:00:22;;;;;;;2.80;1.80;;;;;;;5.62;57.55;100145.69;5019186;28;20747;-79
2023/04/04 09:02:57;;;;;;;2.77;1.90;;;;;;;5.62;56.90;100156.19;5019947;28;20209;-80
2023/04/04 09:05:26;;;;;;;5.00;2.20;;;;;;;5.37;59.66;100148.97;5040944;28;20227;-79
2023/04/04 09:07:56;;;;;;;3.87;2.23;;;;;;;5.68;60.86;100138.47;5087968;28;20287;-80
2023/04/04 09:10:28;;;;;;;5.60;3.03;;;;;;;5.76;61.60;100140.88;5083214;28;20203;-79
2023/04/04 09:12:57;;;;;;;4.90;2.23;;;;;;;6.19;57.64;100132.63;5087844;28;20241;-80
2023/04/04 09:15:46;;;;;;;6.13;2.60;;;;;;;6.44;58.38;100140.63;5096254;28;20278;-79
2023/04/04 09:18:14;;;;;;;3.47;2.20;;;;;;;6.73;55.00;100139.69;5089704;28;20218;-80
2023/04/04 09:20:44;;;;;;;5.50;3.03;;;;;;;6.42;53.54;100144.22;5094871;28;20199;-80
2023/04/04 09:23:13;;;;;;;3.83;2.20;;;;;;;6.69;54.49;100138.06;5096389;28;20222;-79
2023/04/04 09:25:50;;;;;;;5.50;3.10;;;;;;;7.09;52.20;100140.25;5088049;28;20199;-79
2023/04/04 09:28:23;;;;;;;5.63;2.60;;;;;;;6.79;52.71;100147.41;5089936;28;20202;-80
2023/04/04 09:30:52;;;;;;;3.37;2.27;;;;;;;6.47;51.97;100137.91;5090251;28;20240;-79
2023/04/04 09:33:24;;;;;;;3.60;2.53;;;;;;;6.55;52.20;100143.75;5087167;28;20196;-80
2023/04/04 09:35:55;;;;;;;4.03;2.27;;;;;;;6.50;51.86;100143.06;5084190;28;20721;-79
2023/04/04 09:38:27;;;;;;;5.10;2.40;;;;;;;6.54;52.04;100139.41;5087351;28;20223;-79
2023/04/04 09:40:57;;;;;;;3.67;1.90;;;;;;;6.75;52.74;100137.84;5093532;28;20196;-80
2023/04/04 09:43:29;;;;;;;3.93;2.00;;;;;;;6.89;53.59;100134.78;5090949;28;20266;-80
2023/04/04 09:46:04;;;;;;;4.40;2.47;;;;;;;6.73;54.69;100133.56;5094232;28;20192;-80
2023/04/04 09:48:35;;;;;;;3.47;2.10;;;;;;;6.77;53.18;100133.44;5039564;28;20198;-79
2023/04/04 09:51:05;;;;;;;2.93;2.03;;;;;;;7.29;52.03;100128.16;5082351;28;20205;-80
2023/04/04 09:53:40;;;;;;;4.77;2.43;;;;;;;7.33;52.64;100137.66;5085108;28;20199;-80
2023/04/04 09:56:11;;;;;;;3.70;2.07;;;;;;;7.32;52.83;100128.91;5088572;28;20195;-79
2023/04/04 09:58:46;;;;;;;4.20;2.10;;;;;;;7.27;51.72;100133.50;5089728;28;20223;-80
2023/04/04 10:01:32;;;;;;;4.73;2.20;;;;;;;7.66;49.89;100125.06;5059208;28;20317;-80
2023/04/04 10:04:00;;;;;;;3.30;1.90;;;;;;;7.94;48.40;100127.56;5090053;28;20223;-80
2023/04/04 10:06:30;;;;;;;2.60;2.07;;;;;;;7.77;48.88;100119.41;5088358;28;20207;-81
2023/04/04 10:08:59;;;;;;;3.67;1.97;;;;;;;8.28;47.79;100127.09;5090604;28;20260;-80
2023/04/04 10:11:44;;;;;;;5.20;2.30;;;;;;;8.58;46.47;100125.06;5092529;28;20208;-80
2023/04/04 10:14:13;;;;;;;4.13;2.27;;;;;;;8.60;45.72;100126.75;5084544;28;20199;-81
2023/04/04 10:16:48;;;;;;;4.10;2.30;;;;;;;8.75;46.10;100129.66;5084435;28;20191;-81
2023/04/04 10:19:19;;;;;;;3.60;2.20;;;;;;;8.44;45.26;100130.03;5085032;28;20276;-81
2023/04/04 10:21:48;;;;;;;3.90;2.63;;;;;;;8.54;46.85;100124.34;5008122;28;20205;-81
2023/04/04 10:24:17;;;;;;;2.33;2.10;;;;;;;8.54;45.00;100123.47;5003606;28;20198;-81
2023/04/04 10:26:48;;;;;;;3.33;2.10;;;;;;;8.67;44.98;100124.69;5005411;28;20233;-81
2023/04/04 10:29:17;;;;;;;3.43;2.37;;;;;;;8.58;44.31;100120.63;5010162;28;20209;-80
2023/04/04 10:31:49;;;;;;;2.77;2.20;;;;;;;8.93;43.72;100120.97;5012551;28;20236;-80
2023/04/04 10:34:22;;;;;;;3.97;2.23;;;;;;;9.11;43.24;100122.84;5009998;28;20277;-80
2023/04/04 10:36:53;;;;;;;4.67;2.00;;;;;;;9.28;43.83;100122.16;5007620;28;20210;-80
2023/04/04 10:39:26;;;;;;;3.43;2.40;;;;;;;8.16;43.92;100123.16;5025961;28;20216;-80
2023/04/04 10:41:57;;;;;;;3.80;2.13;;;;;;;8.91;43.55;100111.41;5048467;28;20358;-80
2023/04/04 10:44:31;;;;;;;4.10;2.33;;;;;;;9.13;43.62;100104.28;5053442;28;20274;-80
2023/04/04 10:47:09;;;;;;;3.03;1.93;;;;;;;9.06;43.87;100098.41;5049386;28;20209;-81
2023/04/04 10:49:39;;;;;;;2.93;1.83;;;;;;;9.44;42.62;100096.72;5050288;28;20197;-81
2023/04/04 10:52:08;;;;;;;2.50;2.00;;;;;;;9.59;43.24;100099.63;5040863;28;20199;-81
2023/04/04 10:54:38;;;;;;;3.77;2.43;;;;;;;10.07;43.64;100096.53;5001268;28;20185;-81
2023/04/04 10:57:08;;;;;;;3.40;2.30;;;;;;;10.01;42.20;100094.16;5045048;28;20197;-81
2023/04/04 10:59:57;;;;;;;3.70;2.30;;;;;;;9.70;44.29;100081.50;5056533;28;20215;-80
2023/04/04 11:02:45;;;;;;;4.40;2.27;;;;;;;10.03;43.03;100079.91;5089413;28;20198;-81
2023/04/04 11:05:21;;;;;;;2.80;2.13;;;;;;;10.06;42.44;100078.94;5090644;28;20199;-81
2023/04/04 11:08:02;;;;;;;3.73;2.40;;;;;;;10.13;42.90;100075.03;5083327;28;20187;-82
2023/04/04 11:10:39;;;;;;;4.03;2.40;;;;;;;10.54;40.99;100066.94;5092257;28;20227;-80
2023/04/04 11:13:12;;;;;;;3.13;2.00;;;;;;;10.22;40.73;100060.53;5087206;28;20241;-81
2023/04/04 11:15:55;;;;;;;6.43;2.40;;;;;;;10.03;40.35;100065.81;5089392;28;20610;-80
2023/04/04 11:18:55;;;;;;;3.87;2.27;;;;;;;10.34;40.05;100054.69;5084251;28;20223;-80
2023/04/04 11:21:26;;;;;;;4.53;2.67;;;;;;;10.35;39.99;100048.44;5089650;28;20203;-80
2023/04/04 11:24:17;;;;;;;3.27;2.40;;;;;;;10.41;40.28;100053.44;5084499;28;20206;-81
2023/04/04 11:26:47;;;;;;;5.80;2.87;;;;;;;10.66;41.18;100044.28;5085981;28;20237;-81
2023/04/04 11:29:53;;;;;;;4.50;2.50;;;;;;;10.81;40.42;100043.53;5088450;28;20222;-82
2023/04/04 11:32:41;;;;;;;4.83;2.70;;;;;;;10.36;40.53;100044.00;5090583;28;20191;-81
2023/04/04 11:35:20;;;;;;;4.03;2.63;;;;;;;10.41;40.34;100040.19;5092379;28;20241;-81
2023/04/04 11:38:00;;;;;;;3.47;2.50;;;;;;;10.18;40.85;100041.28;5089337;28;20208;-81
2023/04/04 11:40:40;;;;;;;4.27;2.30;;;;;;;10.31;40.51;100041.56;5088640;28;20291;-81